Time;durP1;ratioP1;P1;durP2;ratioP2;P2;SDS_P1;SDS_P2;PMS_P1;PMS_P2;Temp;Humidity;BMP_temperature;BMP_pressure;BME280_temperature;BME280_humidity;BME280_pressure;Samples;Min_cycle;Max_cycle;Signal;HPM_P1;HPM_P2
2022/01/01 00:00:45;;;;;;;91.32;28.95;;;;;;;;;;5017830;28;20095;-73
2022/01/01 00:03:11;;;;;;;89.85;29.92;;;;;;;;;;5027543;28;20521;-73
2022/01/01 00:05:37;;;;;;;82.07;28.45;;;;;;;;;;5024060;28;20029;-72
2022/01/01 00:08:05;;;;;;;90.55;27.35;;;;;;;;;;5011047;28;20129;-72
2022/01/01 00:10:32;;;;;;;82.15;25.90;;;;;;;;;;5023086;28;20466;-72
2022/01/01 00:12:58;;;;;;;74.45;24.85;;;;;;;;;;5020313;28;20060;-72
2022/01/01 00:15:24;;;;;;;81.40;25.63;;;;;;;;;;5021378;28;20119;-72
2022/01/01 00:17:50;;;;;;;82.65;23.80;;;;;;;;;;5021277;28;20406;-74
2022/01/01 00:20:16;;;;;;;87.55;26.20;;;;;;;;;;5022810;28;20041;-72
2022/01/01 00:22:43;;;;;;;82.85;23.88;;;;;;;;;;5022177;28;20419;-72
2022/01/01 00:25:10;;;;;;;78.78;25.48;;;;;;;;;;5022919;28;20591;-72
2022/01/01 00:27:36;;;;;;;82.97;27.15;;;;;;;;;;5022316;28;20086;-72
2022/01/01 00:30:06;;;;;;;88.85;26.90;;;;;;;;;;5023313;28;20032;-73
2022/01/01 00:32:32;;;;;;;89.15;26.55;;;;;;;;;;5023936;28;20036;-73
2022/01/01 00:34:58;;;;;;;86.22;23.17;;;;;;;;;;5022294;28;20061;-73
2022/01/01 00:37:24;;;;;;;83.70;25.15;;;;;;;;;;5018518;28;20033;-73
2022/01/01 00:39:51;;;;;;;88.35;22.27;;;;;;;;;;5021949;28;20022;-73
2022/01/01 00:42:17;;;;;;;85.95;21.67;;;;;;;;;;5027901;28;20044;-73
2022/01/01 00:44:43;;;;;;;86.85;23.73;;;;;;;;;;5021838;28;20041;-73
2022/01/01 00:47:09;;;;;;;78.35;21.27;;;;;;;;;;5023716;28;20030;-73
2022/01/01 00:49:35;;;;;;;80.75;19.75;;;;;;;;;;5019312;28;20033;-73
2022/01/01 00:52:01;;;;;;;78.43;19.85;;;;;;;;;;5029559;28;20622;-73
2022/01/01 00:54:27;;;;;;;84.05;18.95;;;;;;;;;;5021557;28;20567;-73
2022/01/01 00:56:53;;;;;;;88.57;22.45;;;;;;;;;;5027312;28;20033;-74
2022/01/01 00:59:20;;;;;;;82.45;20.88;;;;;;;;;;5020272;28;20025;-73
2022/01/01 01:01:47;;;;;;;87.78;22.05;;;;;;;;;;5022914;28;20038;-73
2022/01/01 01:04:13;;;;;;;91.32;24.45;;;;;;;;;;5020802;28;20491;-73
2022/01/01 01:06:39;;;;;;;86.07;23.67;;;;;;;;;;5024033;28;20604;-73
2022/01/01 01:09:05;;;;;;;82.20;23.65;;;;;;;;;;5021147;28;20494;-74
2022/01/01 01:11:31;;;;;;;87.68;26.70;;;;;;;;;;5023757;28;20041;-73
2022/01/01 01:13:59;;;;;;;91.43;27.73;;;;;;;;;;5019853;28;20744;-73
2022/01/01 01:16:26;;;;;;;100.28;28.70;;;;;;;;;;5021477;28;20120;-73
2022/01/01 01:18:54;;;;;;;107.78;31.55;;;;;;;;;;5020714;28;20097;-73
2022/01/01 01:21:21;;;;;;;111.10;38.28;;;;;;;;;;5017751;28;20041;-73
2022/01/01 01:23:48;;;;;;;122.13;38.35;;;;;;;;;;5021677;28;20060;-73
2022/01/01 01:26:14;;;;;;;127.78;41.92;;;;;;;;;;5023492;28;20029;-73
2022/01/01 01:28:47;;;;;;;132.52;49.70;;;;;;;;;;5022242;28;20118;-73
2022/01/01 01:31:13;;;;;;;142.95;55.78;;;;;;;;;;5006910;28;20037;-73
2022/01/01 01:33:39;;;;;;;159.85;58.47;;;;;;;;;;5019834;28;20045;-73
2022/01/01 01:36:05;;;;;;;173.63;66.50;;;;;;;;;;5021069;28;20045;-73
2022/01/01 01:38:36;;;;;;;177.30;68.35;;;;;;;;;;5019982;28;20035;-73
2022/01/01 01:41:02;;;;;;;163.07;63.65;;;;;;;;;;5016050;28;20026;-73
2022/01/01 01:43:28;;;;;;;171.68;65.15;;;;;;;;;;5025178;28;20036;-73
2022/01/01 01:45:54;;;;;;;169.75;66.00;;;;;;;;;;5015582;28;20042;-73
2022/01/01 01:48:21;;;;;;;166.50;62.72;;;;;;;;;;5023283;28;20664;-72
2022/01/01 01:50:47;;;;;;;139.30;57.60;;;;;;;;;;5023639;28;20038;-72
2022/01/01 01:53:13;;;;;;;157.15;53.67;;;;;;;;;;5025798;28;20616;-72
2022/01/01 01:55:39;;;;;;;149.77;51.65;;;;;;;;;;5022628;28;20029;-72
2022/01/01 01:58:05;;;;;;;132.95;47.25;;;;;;;;;;5022985;28;20029;-72
2022/01/01 02:02:57;;;;;;;132.70;43.83;;;;;;;;;;5021669;28;20487;-72
2022/01/01 02:05:23;;;;;;;131.32;41.10;;;;;;;;;;5023656;28;20101;-71
2022/01/01 02:07:53;;;;;;;112.60;41.22;;;;;;;;;;5023976;28;20084;-72
2022/01/01 02:10:19;;;;;;;124.00;39.28;;;;;;;;;;5023278;28;20053;-72
2022/01/01 02:12:52;;;;;;;115.82;38.45;;;;;;;;;;5004468;28;20112;-73
2022/01/01 02:15:47;;;;;;;115.85;37.03;;;;;;;;;;5024556;28;20049;-72
2022/01/01 02:18:13;;;;;;;122.55;41.63;;;;;;;;;;5021436;28;20105;-72
2022/01/01 02:20:39;;;;;;;114.30;45.25;;;;;;;;;;5023107;28;20528;-73
2022/01/01 02:23:05;;;;;;;153.48;46.92;;;;;;;;;;5023467;28;20373;-72
2022/01/01 02:25:31;;;;;;;146.55;51.42;;;;;;;;;;5021262;28;20030;-72
2022/01/01 02:27:58;;;;;;;142.15;51.08;;;;;;;;;;5024129;28;20052;-72
2022/01/01 02:30:24;;;;;;;161.88;57.40;;;;;;;;;;5023140;28;20029;-72
2022/01/01 02:32:50;;;;;;;150.27;52.25;;;;;;;;;;5022001;28;20029;-72
2022/01/01 02:35:17;;;;;;;141.65;53.58;;;;;;;;;;5019702;28;20026;-72
2022/01/01 02:37:43;;;;;;;173.02;58.53;;;;;;;;;;5023579;28;20060;-72
2022/01/01 02:40:10;;;;;;;155.25;55.85;;;;;;;;;;5026599;28;20037;-72
2022/01/01 02:42:38;;;;;;;139.15;55.55;;;;;;;;;;5006661;28;20040;-72
2022/01/01 02:45:08;;;;;;;140.25;54.35;;;;;;;;;;5020096;28;20109;-72
2022/01/01 02:47:34;;;;;;;145.60;51.17;;;;;;;;;;5023572;28;20675;-72
2022/01/01 02:50:00;;;;;;;145.23;51.65;;;;;;;;;;5031610;28;20037;-72
2022/01/01 02:52:26;;;;;;;132.52;47.83;;;;;;;;;;5020473;28;20076;-72
2022/01/01 02:54:52;;;;;;;131.25;44.55;;;;;;;;;;5023264;28;20029;-72
2022/01/01 02:57:18;;;;;;;124.47;42.55;;;;;;;;;;5025941;28;20060;-72
2022/01/01 02:59:44;;;;;;;132.88;45.13;;;;;;;;;;5008547;28;20030;-72
2022/01/01 03:02:10;;;;;;;133.30;43.72;;;;;;;;;;5022943;28;20033;-72
2022/01/01 03:04:37;;;;;;;131.88;44.47;;;;;;;;;;5022088;28;20124;-72
2022/01/01 03:07:03;;;;;;;129.00;43.33;;;;;;;;;;5022849;28;20034;-72
2022/01/01 03:09:35;;;;;;;134.15;42.75;;;;;;;;;;5023138;28;20477;-72
2022/01/01 03:12:02;;;;;;;125.68;45.00;;;;;;;;;;5023923;28;20039;-72
2022/01/01 03:14:28;;;;;;;121.53;40.92;;;;;;;;;;5021495;28;20459;-72
2022/01/01 03:16:55;;;;;;;119.50;42.95;;;;;;;;;;5024441;28;20040;-72
2022/01/01 03:19:21;;;;;;;119.80;42.08;;;;;;;;;;5022812;28;20849;-72
2022/01/01 03:21:48;;;;;;;136.15;44.38;;;;;;;;;;5024498;28;20033;-72
2022/01/01 03:24:14;;;;;;;119.15;43.00;;;;;;;;;;5021718;28;20494;-72
2022/01/01 03:26:40;;;;;;;124.22;45.63;;;;;;;;;;5023130;28;20021;-72
2022/01/01 03:29:06;;;;;;;117.80;43.80;;;;;;;;;;5023403;28;21337;-72
2022/01/01 03:31:33;;;;;;;123.63;43.13;;;;;;;;;;5021775;28;20184;-72
2022/01/01 03:33:59;;;;;;;124.05;44.53;;;;;;;;;;5021194;28;20071;-72
2022/01/01 03:36:28;;;;;;;118.15;42.75;;;;;;;;;;5023034;28;20068;-72
2022/01/01 03:38:55;;;;;;;119.38;42.03;;;;;;;;;;5021231;28;20018;-72
2022/01/01 03:41:21;;;;;;;127.72;44.60;;;;;;;;;;5022071;28;20021;-72
2022/01/01 03:43:47;;;;;;;126.95;42.50;;;;;;;;;;5022883;28;20025;-72
2022/01/01 03:46:14;;;;;;;116.13;44.70;;;;;;;;;;5025701;28;20734;-72
2022/01/01 03:48:40;;;;;;;116.93;42.85;;;;;;;;;;5007096;28;20038;-73
2022/01/01 03:51:06;;;;;;;112.32;43.35;;;;;;;;;;5018369;28;20037;-74
2022/01/01 03:53:32;;;;;;;125.45;43.47;;;;;;;;;;5022590;28;20505;-74
2022/01/01 03:55:59;;;;;;;121.30;43.20;;;;;;;;;;5022452;28;20398;-74
2022/01/01 03:58:25;;;;;;;124.93;46.03;;;;;;;;;;5005754;28;20040;-73
2022/01/01 04:00:51;;;;;;;127.35;47.50;;;;;;;;;;5009130;28;20030;-73
2022/01/01 04:03:17;;;;;;;123.15;47.80;;;;;;;;;;5023719;28;20021;-74
2022/01/01 04:05:44;;;;;;;135.30;44.38;;;;;;;;;;5026170;28;20418;-74
2022/01/01 04:08:10;;;;;;;116.03;45.20;;;;;;;;;;5021973;28;20153;-73
2022/01/01 04:10:37;;;;;;;110.97;45.85;;;;;;;;;;5020647;28;20437;-74
2022/01/01 04:13:04;;;;;;;113.80;49.33;;;;;;;;;;5021331;28;20035;-73
2022/01/01 04:15:30;;;;;;;142.35;67.70;;;;;;;;;;5024375;28;20044;-73
2022/01/01 04:18:00;;;;;;;161.68;71.07;;;;;;;;;;5024659;28;20040;-74
2022/01/01 04:20:26;;;;;;;141.75;61.08;;;;;;;;;;5022994;28;20037;-74
2022/01/01 04:22:52;;;;;;;140.23;59.15;;;;;;;;;;5008709;28;20029;-73
2022/01/01 04:25:20;;;;;;;139.00;63.83;;;;;;;;;;5021335;28;20037;-73
2022/01/01 04:27:46;;;;;;;132.60;61.50;;;;;;;;;;5020320;28;20083;-73
2022/01/01 04:30:12;;;;;;;153.85;63.58;;;;;;;;;;5020569;28;20037;-73
2022/01/01 04:32:38;;;;;;;147.52;68.85;;;;;;;;;;5027320;28;20427;-73
2022/01/01 04:35:05;;;;;;;147.45;65.63;;;;;;;;;;5025079;28;21242;-73
2022/01/01 04:37:31;;;;;;;140.82;67.00;;;;;;;;;;5020382;28;20030;-73
2022/01/01 04:39:59;;;;;;;139.18;67.32;;;;;;;;;;5019515;28;20029;-73
2022/01/01 04:42:25;;;;;;;145.07;67.10;;;;;;;;;;5024101;28;20029;-73
2022/01/01 04:44:51;;;;;;;150.80;67.00;;;;;;;;;;5021696;28;20035;-73
2022/01/01 04:47:18;;;;;;;145.00;64.07;;;;;;;;;;5021837;28;20392;-73
2022/01/01 04:49:44;;;;;;;150.40;64.90;;;;;;;;;;5022092;28;20052;-73
2022/01/01 04:52:10;;;;;;;150.82;64.05;;;;;;;;;;5019040;28;20115;-73
2022/01/01 04:54:40;;;;;;;152.07;58.80;;;;;;;;;;5021872;28;20025;-73
2022/01/01 04:57:06;;;;;;;158.18;60.55;;;;;;;;;;5025873;28;20026;-73
2022/01/01 04:59:33;;;;;;;141.90;57.85;;;;;;;;;;5021109;28;20036;-73
2022/01/01 05:01:59;;;;;;;148.63;49.95;;;;;;;;;;5020599;28;20041;-75
2022/01/01 05:04:25;;;;;;;134.00;45.97;;;;;;;;;;5022204;28;20038;-74
2022/01/01 05:06:52;;;;;;;124.35;43.33;;;;;;;;;;5024362;28;20037;-74
2022/01/01 05:09:19;;;;;;;137.15;42.30;;;;;;;;;;5022911;28;20398;-73
2022/01/01 05:11:45;;;;;;;113.60;38.60;;;;;;;;;;5021704;28;20033;-73
2022/01/01 05:14:12;;;;;;;124.90;36.50;;;;;;;;;;5007683;28;20379;-74
2022/01/01 05:16:38;;;;;;;131.73;36.38;;;;;;;;;;5022936;28;20108;-73
2022/01/01 05:19:04;;;;;;;137.68;36.10;;;;;;;;;;5024248;28;20022;-73
2022/01/01 05:21:32;;;;;;;166.27;38.35;;;;;;;;;;5019498;28;20060;-73
2022/01/01 05:23:59;;;;;;;169.10;39.35;;;;;;;;;;5026655;28;20085;-73
2022/01/01 05:26:25;;;;;;;185.10;43.83;;;;;;;;;;5024902;28;20096;-73
2022/01/01 05:28:51;;;;;;;150.82;40.08;;;;;;;;;;5025172;28;20037;-73
2022/01/01 05:31:19;;;;;;;176.48;42.47;;;;;;;;;;5022916;28;20104;-73
2022/01/01 05:33:52;;;;;;;155.52;41.60;;;;;;;;;;5024109;28;20072;-73
2022/01/01 05:36:18;;;;;;;166.93;45.92;;;;;;;;;;5027437;28;20032;-73
2022/01/01 05:38:45;;;;;;;199.90;46.80;;;;;;;;;;5023318;28;20029;-74
2022/01/01 05:41:12;;;;;;;164.70;45.03;;;;;;;;;;5028802;28;20029;-73
2022/01/01 05:43:38;;;;;;;173.32;47.05;;;;;;;;;;5026573;28;20382;-73
2022/01/01 05:46:04;;;;;;;190.63;49.65;;;;;;;;;;5027361;28;20025;-73
2022/01/01 05:48:30;;;;;;;197.02;50.47;;;;;;;;;;5023811;28;20065;-73
2022/01/01 05:50:57;;;;;;;197.25;48.85;;;;;;;;;;5023894;28;20026;-73
2022/01/01 05:53:23;;;;;;;191.73;47.05;;;;;;;;;;5022330;28;20097;-73
2022/01/01 05:55:49;;;;;;;167.07;45.58;;;;;;;;;;5009065;28;20128;-73
2022/01/01 05:58:15;;;;;;;172.05;44.95;;;;;;;;;;5023511;28;20067;-73
2022/01/01 06:00:42;;;;;;;146.35;43.72;;;;;;;;;;5027245;28;20026;-71
2022/01/01 06:03:08;;;;;;;139.35;42.95;;;;;;;;;;5025601;28;20025;-73
2022/01/01 06:05:35;;;;;;;138.43;41.72;;;;;;;;;;5005191;28;20049;-72
2022/01/01 06:08:01;;;;;;;140.68;39.80;;;;;;;;;;5023747;28;20056;-72
2022/01/01 06:10:28;;;;;;;135.25;40.58;;;;;;;;;;5025660;28;20508;-72
2022/01/01 06:12:54;;;;;;;137.90;39.20;;;;;;;;;;5024970;28;20044;-72
2022/01/01 06:15:21;;;;;;;119.40;37.45;;;;;;;;;;5012943;28;20033;-72
2022/01/01 06:17:47;;;;;;;117.65;34.58;;;;;;;;;;5020531;28;20058;-72
2022/01/01 06:20:13;;;;;;;117.25;35.47;;;;;;;;;;5018821;28;20041;-72
2022/01/01 06:22:40;;;;;;;109.72;35.35;;;;;;;;;;5024453;28;20041;-72
2022/01/01 06:25:06;;;;;;;107.13;34.22;;;;;;;;;;5025059;28;20113;-73
2022/01/01 06:27:32;;;;;;;89.72;29.92;;;;;;;;;;5029558;28;20482;-72
2022/01/01 06:29:58;;;;;;;98.50;32.05;;;;;;;;;;5029253;28;20029;-72
2022/01/01 06:32:24;;;;;;;109.68;31.33;;;;;;;;;;5016996;28;20113;-72
2022/01/01 06:34:50;;;;;;;88.85;29.58;;;;;;;;;;5022076;28;20057;-72
2022/01/01 06:37:16;;;;;;;94.72;29.88;;;;;;;;;;5022936;28;20041;-72
2022/01/01 06:39:43;;;;;;;96.55;27.95;;;;;;;;;;5007297;28;20052;-72
2022/01/01 06:42:09;;;;;;;86.68;27.15;;;;;;;;;;5029991;28;20057;-72
2022/01/01 06:44:35;;;;;;;106.00;27.73;;;;;;;;;;5021850;28;20038;-72
2022/01/01 06:47:01;;;;;;;91.88;28.17;;;;;;;;;;5029099;28;20029;-72
2022/01/01 06:49:27;;;;;;;94.15;27.08;;;;;;;;;;5023136;28;20458;-72
2022/01/01 06:51:53;;;;;;;110.22;29.88;;;;;;;;;;5031375;28;20037;-73
2022/01/01 06:54:19;;;;;;;83.28;26.88;;;;;;;;;;5022206;28;20111;-72
2022/01/01 06:56:45;;;;;;;90.32;28.42;;;;;;;;;;5030057;28;20021;-72
2022/01/01 06:59:11;;;;;;;87.68;28.50;;;;;;;;;;5020524;28;20053;-72
2022/01/01 07:01:38;;;;;;;84.63;27.33;;;;;;;;;;5028760;28;20455;-72
2022/01/01 07:04:04;;;;;;;81.18;28.60;;;;;;;;;;5023735;28;20034;-72
2022/01/01 07:06:31;;;;;;;82.10;27.17;;;;;;;;;;5026899;28;20037;-72
2022/01/01 07:08:57;;;;;;;82.63;29.83;;;;;;;;;;5022046;28;20030;-72
2022/01/01 07:11:23;;;;;;;84.35;29.25;;;;;;;;;;5029874;28;20122;-73
2022/01/01 07:13:49;;;;;;;95.05;28.40;;;;;;;;;;5023525;28;20037;-73
2022/01/01 07:16:15;;;;;;;101.07;30.25;;;;;;;;;;5027210;28;20045;-73
2022/01/01 07:18:41;;;;;;;80.55;26.92;;;;;;;;;;5023627;28;20431;-73
2022/01/01 07:21:07;;;;;;;75.00;28.60;;;;;;;;;;5025738;28;20053;-73
2022/01/01 07:23:33;;;;;;;79.47;28.73;;;;;;;;;;5025098;28;20048;-73
2022/01/01 07:25:59;;;;;;;78.78;28.67;;;;;;;;;;5025773;28;20091;-73
2022/01/01 07:28:25;;;;;;;85.85;30.13;;;;;;;;;;5023146;28;20047;-72
2022/01/01 07:30:51;;;;;;;72.35;27.27;;;;;;;;;;5016676;28;20124;-72
2022/01/01 07:33:17;;;;;;;67.60;26.92;;;;;;;;;;5024398;28;20134;-72
2022/01/01 07:35:43;;;;;;;75.80;27.25;;;;;;;;;;5019343;28;20038;-72
2022/01/01 07:38:10;;;;;;;78.82;27.83;;;;;;;;;;5023448;28;20034;-72
2022/01/01 07:40:39;;;;;;;76.00;27.65;;;;;;;;;;5023583;28;20072;-74
2022/01/01 07:43:15;;;;;;;74.32;27.58;;;;;;;;;;5023183;28;20061;-73
2022/01/01 07:45:41;;;;;;;81.95;27.58;;;;;;;;;;5023276;28;20064;-73
2022/01/01 07:48:08;;;;;;;77.82;28.35;;;;;;;;;;5020679;28;20021;-73
2022/01/01 07:50:34;;;;;;;76.22;28.55;;;;;;;;;;5021718;28;20075;-73
2022/01/01 07:53:00;;;;;;;69.63;28.92;;;;;;;;;;5020950;28;20053;-72
2022/01/01 07:55:26;;;;;;;82.43;31.35;;;;;;;;;;5023571;28;20034;-72
2022/01/01 07:57:52;;;;;;;83.30;30.63;;;;;;;;;;5019810;28;20544;-73
2022/01/01 08:00:18;;;;;;;75.28;30.67;;;;;;;;;;5019995;28;20038;-72
2022/01/01 08:02:45;;;;;;;82.57;30.83;;;;;;;;;;5021792;28;20035;-72
2022/01/01 08:05:12;;;;;;;82.53;31.38;;;;;;;;;;5024638;28;20080;-73
2022/01/01 08:07:39;;;;;;;80.18;32.55;;;;;;;;;;5019622;28;20054;-73
2022/01/01 08:10:06;;;;;;;81.85;31.40;;;;;;;;;;5021266;28;20068;-73
2022/01/01 08:12:32;;;;;;;81.50;32.13;;;;;;;;;;5017893;28;20033;-72
2022/01/01 08:14:58;;;;;;;80.38;33.20;;;;;;;;;;5022655;28;20041;-72
2022/01/01 08:17:24;;;;;;;93.80;35.78;;;;;;;;;;5018351;28;20387;-73
2022/01/01 08:19:51;;;;;;;71.28;30.83;;;;;;;;;;5022372;28;20054;-72
2022/01/01 08:22:17;;;;;;;76.57;32.42;;;;;;;;;;5025807;28;20040;-73
2022/01/01 08:24:43;;;;;;;68.03;30.63;;;;;;;;;;5020967;28;20491;-73
2022/01/01 08:27:10;;;;;;;73.63;30.98;;;;;;;;;;5023426;28;20021;-73
2022/01/01 08:29:36;;;;;;;75.30;30.17;;;;;;;;;;5021816;28;20036;-74
2022/01/01 08:32:02;;;;;;;61.60;29.80;;;;;;;;;;5022295;28;20109;-73
2022/01/01 08:34:28;;;;;;;67.57;28.90;;;;;;;;;;5023385;28;20034;-73
2022/01/01 08:36:54;;;;;;;68.03;29.25;;;;;;;;;;5029775;28;20096;-73
2022/01/01 08:39:20;;;;;;;59.08;27.10;;;;;;;;;;5022758;28;20033;-73
2022/01/01 08:41:47;;;;;;;64.60;31.40;;;;;;;;;;4989098;28;20041;-71
2022/01/01 08:44:14;;;;;;;70.60;32.35;;;;;;;;;;5017394;28;20022;-71
2022/01/01 08:46:40;;;;;;;59.53;27.00;;;;;;;;;;5027237;28;20029;-72
2022/01/01 08:49:06;;;;;;;65.05;29.35;;;;;;;;;;5022835;28;20033;-72
2022/01/01 08:51:36;;;;;;;59.03;26.10;;;;;;;;;;5020560;28;20048;-72
2022/01/01 08:54:03;;;;;;;53.22;24.50;;;;;;;;;;5004205;28;20402;-72
2022/01/01 08:56:29;;;;;;;61.00;24.38;;;;;;;;;;5023577;28;20060;-73
2022/01/01 08:58:55;;;;;;;56.38;23.30;;;;;;;;;;5019920;28;20037;-73
2022/01/01 09:01:21;;;;;;;53.28;21.77;;;;;;;;;;5027311;28;20042;-73
2022/01/01 09:03:47;;;;;;;48.80;22.30;;;;;;;;;;5022049;28;20109;-73
2022/01/01 09:06:13;;;;;;;52.28;22.45;;;;;;;;;;5024413;28;20106;-73
2022/01/01 09:08:40;;;;;;;45.10;21.02;;;;;;;;;;5002408;28;20111;-72
2022/01/01 09:11:07;;;;;;;49.13;20.27;;;;;;;;;;5026115;28;20108;-71
2022/01/01 09:13:33;;;;;;;53.47;22.75;;;;;;;;;;5021784;28;20042;-72
2022/01/01 09:16:00;;;;;;;52.28;21.98;;;;;;;;;;5020692;28;20072;-71
2022/01/01 09:18:26;;;;;;;89.63;44.65;;;;;;;;;;5022347;28;20498;-72
2022/01/01 09:20:52;;;;;;;52.65;25.95;;;;;;;;;;5024801;28;20046;-71
2022/01/01 09:23:19;;;;;;;49.45;22.85;;;;;;;;;;5021015;28;20141;-73
2022/01/01 09:25:45;;;;;;;45.30;20.92;;;;;;;;;;5025763;28;20554;-73
2022/01/01 09:28:11;;;;;;;46.70;20.10;;;;;;;;;;5022853;28;20037;-73
2022/01/01 09:30:37;;;;;;;47.63;20.33;;;;;;;;;;5023698;28;20398;-73
2022/01/01 09:33:03;;;;;;;50.70;21.40;;;;;;;;;;5021786;28;20112;-73
2022/01/01 09:35:30;;;;;;;50.55;19.63;;;;;;;;;;5020619;28;20030;-73
2022/01/01 09:37:56;;;;;;;44.40;16.70;;;;;;;;;;5022041;28;20037;-72
2022/01/01 09:40:22;;;;;;;41.33;17.10;;;;;;;;;;5015475;28;20030;-73
2022/01/01 09:42:48;;;;;;;37.70;16.58;;;;;;;;;;5021030;28;20476;-73
2022/01/01 09:45:15;;;;;;;51.97;16.08;;;;;;;;;;5008714;28;20038;-71
2022/01/01 09:47:42;;;;;;;44.95;24.15;;;;;;;;;;5022376;28;20045;-72
2022/01/01 09:50:09;;;;;;;48.42;17.52;;;;;;;;;;5018182;28;20041;-71
2022/01/01 09:52:35;;;;;;;35.65;15.95;;;;;;;;;;5021970;28;20123;-72
2022/01/01 09:55:01;;;;;;;29.55;14.40;;;;;;;;;;5015292;28;20091;-71
2022/01/01 09:57:27;;;;;;;41.88;16.48;;;;;;;;;;5005720;28;20090;-72
2022/01/01 09:59:53;;;;;;;35.83;15.10;;;;;;;;;;5015730;28;20132;-72
2022/01/01 10:02:19;;;;;;;31.35;14.20;;;;;;;;;;5020860;28;20040;-72
2022/01/01 10:04:51;;;;;;;38.50;14.90;;;;;;;;;;5023386;28;20033;-72
2022/01/01 10:07:18;;;;;;;43.80;15.40;;;;;;;;;;5020328;28;20021;-72
2022/01/01 10:09:44;;;;;;;37.50;15.90;;;;;;;;;;5011418;28;20026;-72
2022/01/01 10:12:15;;;;;;;30.63;14.15;;;;;;;;;;5019466;28;20167;-71
2022/01/01 10:14:42;;;;;;;33.20;13.40;;;;;;;;;;5022672;28;20032;-73
2022/01/01 10:17:14;;;;;;;39.03;15.00;;;;;;;;;;5024142;28;20037;-74
2022/01/01 10:19:41;;;;;;;33.95;14.95;;;;;;;;;;5020887;28;20017;-72
2022/01/01 10:22:11;;;;;;;32.28;14.23;;;;;;;;;;5010014;28;20061;-72
2022/01/01 10:27:42;;;;;;;31.58;13.40;;;;;;;;;;5025284;28;20041;-72
2022/01/01 10:27:46;;;;;;;46.60;22.20;;;;;;;;;;5030212;28;20089;-72
2022/01/01 10:30:24;;;;;;;32.95;13.35;;;;;;;;;;5024139;28;20029;-72
2022/01/01 10:33:00;;;;;;;36.65;13.52;;;;;;;;;;5023449;28;20040;-73
2022/01/01 10:35:26;;;;;;;31.85;12.90;;;;;;;;;;5019009;28;20360;-72
2022/01/01 10:37:54;;;;;;;32.47;13.15;;;;;;;;;;5019464;28;20049;-72
2022/01/01 10:40:27;;;;;;;33.35;13.55;;;;;;;;;;5019418;28;20029;-72
2022/01/01 10:42:53;;;;;;;28.20;12.45;;;;;;;;;;5021384;28;20045;-72
2022/01/01 10:45:52;;;;;;;30.35;12.10;;;;;;;;;;5018442;28;20034;-72
2022/01/01 10:49:19;;;;;;;29.15;12.25;;;;;;;;;;4965394;28;20136;-72
2022/01/01 10:51:09;;;;;;;30.25;13.23;;;;;;;;;;5007468;28;20029;-72
2022/01/01 10:53:35;;;;;;;30.15;11.40;;;;;;;;;;5016638;28;20490;-72
2022/01/01 10:56:03;;;;;;;29.23;13.18;;;;;;;;;;5017868;28;20096;-73
2022/01/01 10:58:35;;;;;;;22.35;10.70;;;;;;;;;;5019702;28;20033;-72
2022/01/01 11:01:02;;;;;;;29.85;11.18;;;;;;;;;;5018693;28;20025;-72
2022/01/01 11:03:28;;;;;;;27.25;11.65;;;;;;;;;;5014288;28;20039;-73
2022/01/01 11:06:11;;;;;;;25.17;11.32;;;;;;;;;;5017929;28;20048;-73
2022/01/01 11:08:38;;;;;;;27.00;11.82;;;;;;;;;;5000938;28;20091;-73
2022/01/01 11:11:04;;;;;;;23.95;10.38;;;;;;;;;;5020133;28;20040;-73
2022/01/01 11:13:31;;;;;;;29.15;12.60;;;;;;;;;;5018535;28;20038;-73
2022/01/01 11:15:58;;;;;;;27.80;10.95;;;;;;;;;;5019210;28;20029;-72
2022/01/01 11:18:25;;;;;;;22.42;9.65;;;;;;;;;;5020648;28;20056;-72
2022/01/01 11:20:51;;;;;;;26.35;10.13;;;;;;;;;;5017786;28;20136;-73
2022/01/01 11:23:19;;;;;;;23.48;9.48;;;;;;;;;;5018782;28;20112;-73
2022/01/01 11:25:45;;;;;;;20.98;9.30;;;;;;;;;;5017951;28;20029;-73
2022/01/01 11:28:12;;;;;;;20.90;7.80;;;;;;;;;;4997862;28;20045;-74
2022/01/01 11:30:42;;;;;;;27.05;9.45;;;;;;;;;;5017228;28;20144;-73
2022/01/01 11:33:13;;;;;;;23.95;8.60;;;;;;;;;;5017430;28;20132;-73
2022/01/01 11:35:47;;;;;;;25.95;9.00;;;;;;;;;;5015449;28;20045;-73
2022/01/01 11:38:14;;;;;;;24.15;8.75;;;;;;;;;;5020956;28;20031;-74
2022/01/01 11:40:56;;;;;;;21.67;7.55;;;;;;;;;;5017846;28;20057;-73
2022/01/01 11:43:31;;;;;;;21.97;7.80;;;;;;;;;;5017485;28;20475;-73
2022/01/01 11:45:58;;;;;;;17.23;6.80;;;;;;;;;;5019378;28;20388;-73
2022/01/01 11:48:31;;;;;;;18.13;7.80;;;;;;;;;;5019779;28;20034;-75
2022/01/01 11:50:57;;;;;;;20.83;7.53;;;;;;;;;;4998311;28;20124;-74
2022/01/01 11:53:28;;;;;;;12.63;6.07;;;;;;;;;;5016289;28;20635;-73
2022/01/01 11:56:03;;;;;;;17.08;6.97;;;;;;;;;;5018691;28;20068;-74
2022/01/01 11:58:45;;;;;;;16.13;6.28;;;;;;;;;;5018686;28;20132;-74
2022/01/01 12:01:11;;;;;;;13.27;5.43;;;;;;;;;;5017984;28;20044;-75
2022/01/01 12:03:54;;;;;;;18.70;6.53;;;;;;;;;;5019342;28;20483;-73
2022/01/01 12:06:20;;;;;;;;;;;;;;;;;;5018307;28;20033;-72
2022/01/01 12:08:47;;;;;;;17.90;7.43;;;;;;;;;;5006203;28;20412;-73
2022/01/01 12:11:32;;;;;;;16.25;6.70;;;;;;;;;;5017637;28;20034;-72
2022/01/01 12:13:59;;;;;;;15.35;6.68;;;;;;;;;;5003764;28;20036;-75
2022/01/01 12:16:26;;;;;;;17.70;7.85;;;;;;;;;;5022113;28;20116;-73
2022/01/01 12:19:06;;;;;;;20.08;6.00;;;;;;;;;;5006203;28;20434;-73
2022/01/01 12:21:39;;;;;;;30.38;14.65;;;;;;;;;;5016263;28;20084;-73
2022/01/01 12:24:08;;;;;;;14.50;6.57;;;;;;;;;;5020931;28;20018;-73
2022/01/01 12:26:35;;;;;;;18.23;6.53;;;;;;;;;;5020700;28;20498;-72
2022/01/01 12:29:01;;;;;;;16.25;6.18;;;;;;;;;;5019409;28;20026;-72
2022/01/01 12:31:29;;;;;;;16.17;7.07;;;;;;;;;;5025703;28;20466;-72
2022/01/01 12:33:59;;;;;;;14.55;5.97;;;;;;;;;;5022260;28;20406;-72
2022/01/01 12:36:31;;;;;;;18.65;7.13;;;;;;;;;;5024490;28;20041;-72
2022/01/01 12:39:02;;;;;;;22.30;7.38;;;;;;;;;;5022338;28;20102;-72
2022/01/01 12:41:33;;;;;;;18.80;6.43;;;;;;;;;;5019094;28;20037;-72
2022/01/01 12:44:01;;;;;;;17.15;5.90;;;;;;;;;;5024482;28;20072;-72
2022/01/01 12:46:28;;;;;;;17.60;6.40;;;;;;;;;;5022473;28;20092;-72
2022/01/01 12:48:57;;;;;;;13.05;5.95;;;;;;;;;;5023349;28;20033;-72
2022/01/01 12:51:24;;;;;;;14.35;6.95;;;;;;;;;;5024821;28;20025;-72
2022/01/01 12:53:54;;;;;;;14.45;6.82;;;;;;;;;;5022383;28;20025;-72
2022/01/01 12:56:21;;;;;;;21.20;6.75;;;;;;;;;;5022713;28;20083;-73
2022/01/01 12:58:51;;;;;;;17.63;6.75;;;;;;;;;;5018347;28;20026;-73
2022/01/01 13:01:17;;;;;;;12.48;6.82;;;;;;;;;;5021774;28;20034;-73
2022/01/01 13:03:44;;;;;;;16.40;6.85;;;;;;;;;;5022836;28;20029;-73
2022/01/01 13:06:11;;;;;;;20.25;7.63;;;;;;;;;;5020931;28;20511;-73
2022/01/01 13:08:41;;;;;;;17.42;7.05;;;;;;;;;;5026876;28;20518;-73
2022/01/01 13:11:08;;;;;;;20.75;7.63;;;;;;;;;;5021088;28;20030;-73
2022/01/01 13:13:34;;;;;;;17.52;7.25;;;;;;;;;;5022958;28;20021;-73
2022/01/01 13:16:00;;;;;;;16.63;8.27;;;;;;;;;;5019644;28;20037;-73
2022/01/01 13:18:27;;;;;;;18.30;7.50;;;;;;;;;;5025720;28;20034;-73
2022/01/01 13:20:54;;;;;;;19.52;7.90;;;;;;;;;;5018569;28;20053;-73
2022/01/01 13:23:20;;;;;;;16.90;8.02;;;;;;;;;;5024821;28;20072;-73
2022/01/01 13:25:46;;;;;;;17.65;7.95;;;;;;;;;;5003273;28;20042;-73
2022/01/01 13:28:15;;;;;;;18.13;8.43;;;;;;;;;;5023647;28;20041;-73
2022/01/01 13:30:42;;;;;;;19.13;8.07;;;;;;;;;;5019967;28;20112;-73
2022/01/01 13:33:08;;;;;;;18.30;8.27;;;;;;;;;;5018124;28;20776;-73
2022/01/01 13:35:34;;;;;;;13.48;7.82;;;;;;;;;;5019699;28;20530;-73
2022/01/01 13:38:00;;;;;;;15.43;7.90;;;;;;;;;;5017887;28;20042;-73
2022/01/01 13:40:26;;;;;;;12.82;7.60;;;;;;;;;;5003269;28;20034;-73
2022/01/01 13:42:52;;;;;;;24.55;10.30;;;;;;;;;;5018064;28;20038;-73
2022/01/01 13:45:23;;;;;;;18.67;8.23;;;;;;;;;;5023661;28;20091;-73
2022/01/01 13:47:49;;;;;;;21.42;8.55;;;;;;;;;;5024997;28;20048;-72
2022/01/01 13:50:17;;;;;;;18.83;8.85;;;;;;;;;;5024445;28;20034;-72
2022/01/01 13:52:51;;;;;;;15.07;7.95;;;;;;;;;;5024244;28;20033;-72
2022/01/01 13:55:22;;;;;;;13.48;8.13;;;;;;;;;;5023780;28;20392;-72
2022/01/01 13:57:51;;;;;;;14.82;7.93;;;;;;;;;;5006696;28;20079;-72
2022/01/01 14:00:17;;;;;;;13.02;7.85;;;;;;;;;;5025498;28;20029;-72
2022/01/01 14:02:45;;;;;;;14.63;8.15;;;;;;;;;;5026607;28;20033;-72
2022/01/01 14:05:15;;;;;;;18.40;8.70;;;;;;;;;;5023520;28;20041;-72
2022/01/01 14:07:41;;;;;;;16.00;8.32;;;;;;;;;;5026378;28;20041;-71
2022/01/01 14:10:12;;;;;;;17.05;9.43;;;;;;;;;;5024303;28;20036;-71
2022/01/01 14:12:40;;;;;;;18.17;8.90;;;;;;;;;;5024775;28;20048;-71
2022/01/01 14:15:11;;;;;;;17.40;8.93;;;;;;;;;;5021643;28;20026;-71
2022/01/01 14:17:57;;;;;;;17.63;10.43;;;;;;;;;;5025689;28;20478;-71
2022/01/01 14:20:42;;;;;;;15.85;8.68;;;;;;;;;;5023067;28;20144;-71